»·PEaware :: SIA38 WSSS-KLAX

SIA38 :: WSSS-KLAX

FLIGHT INFORMATION

Flight Status: Arrived
Operator:
Singapore Airlines
More flights by this operator :: More flights under this callsign
Pilot: Matthew M. (8235)
Aircraft: Unknown
(A359)
More flights by this aircraft type
Origin: WSSS Changi
Singapore
Destination: KLAX Los Angeles Intl
United States
More flights between these airports :: More routes between these airports
Route: +TOMAN L625 MEVIN B462 KAZIK Y59 AZAMA SHIBK TAPOP OTR25 HCE EMRON 41N160E 42N170E 43N180E 45N170W 47N160W 47N150W 45N140W 40N130W DACEM PAINT PIRAT BURGL IRNMN2
File this flight plan on PilotEdge
Remarks:
Altitude:
(Current/Filed)
41,000ft
Speed:
(Current/Filed)
510kts
Departed: 24-Jul-20 09:19 AM
Arrived: 24-Jul-20 11:40 AM
Distance/Time
Traveled:
7608nm/2:20
Distance/Time
To Go:
Arrived

Flight Plot

Page will automatically refresh every two minutes.


Map Options




Map Legend


Flown Route
Filed Route
Departure Airport
Arrival Airport
Navaid (VOR, NDB)
Fix

Horizontal Profiles

Position Reports

Time Latitude Longitude Heading Altitude Ground
Speed
24-Jul-20 09:17 43.110748 -135.817853 122 40780ft 500kts
24-Jul-20 09:18 43.033589 -135.659144 122 41057ft 501kts
24-Jul-20 09:19 42.956199 -135.500725 122 41058ft 503kts
24-Jul-20 09:20 42.878235 -135.342291 123 41058ft 503kts
24-Jul-20 09:21 42.800063 -135.184552 123 41049ft 503kts
24-Jul-20 09:22 42.721944 -135.027307 123 41035ft 505kts
24-Jul-20 09:23 42.642976 -134.869137 123 41032ft 508kts
24-Jul-20 09:24 42.563224 -134.710240 123 41032ft 509kts
24-Jul-20 09:25 42.483243 -134.551732 123 41032ft 509kts
24-Jul-20 09:26 42.402954 -134.393447 123 41032ft 509kts
24-Jul-20 09:27 42.323219 -134.236710 124 41032ft 508kts
24-Jul-20 09:28 42.242972 -134.079887 124 41032ft 508kts
24-Jul-20 09:29 42.162196 -133.923099 124 41032ft 508kts
24-Jul-20 09:30 42.081329 -133.766969 124 41032ft 508kts
24-Jul-20 09:31 42.000342 -133.611402 124 41032ft 508kts
24-Jul-20 09:32 41.919213 -133.456357 124 41032ft 508kts
24-Jul-20 09:33 41.837788 -133.302229 124 41032ft 508kts
24-Jul-20 09:34 41.756418 -133.148262 124 41032ft 507kts
24-Jul-20 09:35 41.675116 -132.995222 124 41032ft 504kts
24-Jul-20 09:36 41.593768 -132.842876 124 41032ft 503kts
24-Jul-20 09:37 41.512428 -132.691311 124 41032ft 503kts
24-Jul-20 09:38 41.430728 -132.539821 124 41032ft 503kts
24-Jul-20 09:39 41.348834 -132.388717 124 41032ft 503kts
24-Jul-20 09:40 41.267070 -132.238185 125 41032ft 503kts
24-Jul-20 09:41 41.185229 -132.088439 125 41032ft 503kts
24-Jul-20 09:42 41.102815 -131.938581 125 41032ft 503kts
24-Jul-20 09:43 41.020129 -131.788962 125 41032ft 505kts
24-Jul-20 09:44 40.936619 -131.638585 125 41032ft 506kts
24-Jul-20 09:45 40.853314 -131.489886 125 41032ft 506kts
24-Jul-20 09:46 40.769505 -131.340959 126 41031ft 506kts
24-Jul-20 09:47 40.685891 -131.192073 126 41032ft 506kts
24-Jul-20 09:48 40.601851 -131.043536 126 41032ft 506kts
24-Jul-20 09:49 40.517707 -130.895627 126 41029ft 503kts
24-Jul-20 09:50 40.434084 -130.749286 126 41024ft 500kts
24-Jul-20 09:51 40.350106 -130.603049 126 41023ft 500kts
24-Jul-20 09:52 40.266368 -130.457877 126 41023ft 500kts
24-Jul-20 09:53 40.182397 -130.312847 126 41023ft 501kts
24-Jul-20 09:54 40.098458 -130.168240 127 41023ft 501kts
24-Jul-20 09:55 40.013985 -130.023686 126 41020ft 500kts
24-Jul-20 09:56 39.937722 -129.872748 122 41023ft 500kts
24-Jul-20 09:57 39.862978 -129.720797 122 41023ft 500kts
24-Jul-20 09:58 39.787807 -129.568984 122 41023ft 500kts
24-Jul-20 09:59 39.712518 -129.417066 121 41023ft 500kts
24-Jul-20 10:00 39.637332 -129.265700 122 41023ft 500kts
24-Jul-20 10:01 39.561750 -129.114268 122 41023ft 500kts
24-Jul-20 10:02 39.485935 -128.963381 122 41023ft 500kts
24-Jul-20 10:03 39.409885 -128.812752 122 41023ft 499kts
24-Jul-20 10:04 39.334039 -128.663215 122 41023ft 499kts
24-Jul-20 10:05 39.257823 -128.513665 122 41023ft 499kts
24-Jul-20 10:06 39.181321 -128.364258 122 41023ft 499kts
24-Jul-20 10:07 39.105026 -128.215489 123 41023ft 499kts
24-Jul-20 10:08 39.028751 -128.067760 123 41023ft 499kts
24-Jul-20 10:09 38.951406 -127.918816 122 41022ft 504kts
24-Jul-20 10:10 38.872927 -127.768570 123 41022ft 512kts
24-Jul-20 10:11 38.793337 -127.617514 123 41023ft 513kts
24-Jul-20 10:12 38.713675 -127.466227 123 41023ft 512kts
24-Jul-20 10:13 38.634011 -127.315427 123 41023ft 513kts
24-Jul-20 10:14 38.554456 -127.165150 123 41023ft 513kts
24-Jul-20 10:15 38.476844 -127.013213 118 41023ft 512kts
24-Jul-20 10:16 38.419881 -126.849310 109 41023ft 510kts
24-Jul-20 10:17 38.368877 -126.680991 109 41023ft 510kts
24-Jul-20 10:18 38.317421 -126.513232 109 41023ft 510kts
24-Jul-20 10:19 38.265499 -126.345078 110 41023ft 510kts
24-Jul-20 10:20 38.213487 -126.177143 110 41020ft 510kts
24-Jul-20 10:21 38.161277 -126.010013 110 40982ft 512kts
24-Jul-20 10:22 38.108287 -125.841467 110 40953ft 522kts
24-Jul-20 10:23 38.054235 -125.670485 110 40949ft 522kts
24-Jul-20 10:24 38.000295 -125.499896 108 40948ft 521kts
24-Jul-20 10:25 37.953820 -125.328509 107 40948ft 521kts
24-Jul-20 10:26 37.907109 -125.154963 107 40949ft 521kts
24-Jul-20 10:27 37.859660 -124.982272 107 40949ft 522kts
24-Jul-20 10:28 37.811857 -124.808409 107 40949ft 526kts
24-Jul-20 10:29 37.763608 -124.633534 107 40953ft 527kts
24-Jul-20 10:30 37.715200 -124.459185 107 40968ft 527kts
24-Jul-20 10:31 37.666763 -124.285693 108 40974ft 527kts
24-Jul-20 10:32 37.618392 -124.113273 108 40976ft 527kts
24-Jul-20 10:33 37.569385 -123.940130 108 40986ft 528kts
24-Jul-20 10:34 37.520090 -123.767151 108 41020ft 527kts
24-Jul-20 10:35 37.470357 -123.593695 108 41036ft 527kts
24-Jul-20 10:36 37.420421 -123.420643 108 41037ft 527kts
24-Jul-20 10:37 37.371005 -123.250100 109 41038ft 528kts
24-Jul-20 10:38 37.320915 -123.078286 109 41038ft 528kts
24-Jul-20 10:39 37.268687 -122.907530 114 41028ft 531kts
24-Jul-20 10:40 37.194554 -122.749335 125 41040ft 530kts
24-Jul-20 10:41 37.110207 -122.599132 125 41037ft 531kts
24-Jul-20 10:42 37.026156 -122.449199 125 41040ft 530kts
24-Jul-20 10:43 36.946873 -122.308114 126 41038ft 528kts
24-Jul-20 10:44 36.859152 -122.152821 126 41033ft 528kts
24-Jul-20 10:45 36.775909 -122.006679 126 41029ft 528kts
24-Jul-20 10:46 36.697671 -121.869426 126 41027ft 527kts
24-Jul-20 10:47 36.615504 -121.725805 126 41029ft 527kts
24-Jul-20 10:48 36.528189 -121.573856 126 41030ft 527kts
24-Jul-20 10:49 36.442551 -121.425478 126 41030ft 528kts
24-Jul-20 10:50 36.360297 -121.283323 127 41030ft 528kts
24-Jul-20 10:51 36.273660 -121.134048 127 41029ft 529kts
24-Jul-20 10:52 36.194376 -120.998242 128 41019ft 530kts
24-Jul-20 10:53 36.119709 -120.871092 129 41009ft 529kts
24-Jul-20 10:54 36.040090 -120.736032 129 41005ft 529kts
24-Jul-20 10:55 35.955251 -120.592575 129 41004ft 529kts
24-Jul-20 10:56 35.879864 -120.465703 129 41005ft 529kts
24-Jul-20 10:57 35.799266 -120.330931 129 41001ft 529kts
24-Jul-20 10:58 35.728341 -120.212355 131 40992ft 528kts
24-Jul-20 10:59 35.640681 -120.099597 143 41003ft 522kts
24-Jul-20 11:00 35.527418 -120.003419 152 41005ft 517kts
24-Jul-20 11:01 35.411306 -119.916383 151 41001ft 517kts
24-Jul-20 11:02 35.299927 -119.832319 150 40077ft 518kts
24-Jul-20 11:03 35.190825 -119.733085 146 39138ft 497kts
24-Jul-20 11:04 35.081771 -119.631209 146 38163ft 491kts
24-Jul-20 11:05 34.982134 -119.538425 147 37215ft 480kts
24-Jul-20 11:06 34.870219 -119.435901 149 36199ft 506kts
24-Jul-20 11:07 34.758941 -119.336931 149 35209ft 499kts
24-Jul-20 11:08 34.643563 -119.235555 150 34175ft 490kts
24-Jul-20 11:09 34.530656 -119.137855 149 33151ft 485kts
24-Jul-20 11:10 34.427074 -119.046030 149 32182ft 476kts
24-Jul-20 11:11 34.326535 -118.958640 148 29634ft 414kts
24-Jul-20 11:12 34.232527 -118.876136 162 25659ft 373kts
24-Jul-20 11:13 34.148407 -118.917164 256 21324ft 317kts
24-Jul-20 11:14 34.188262 -119.014180 312 17091ft 304kts
24-Jul-20 11:15 34.243763 -119.090302 312 15467ft 300kts
24-Jul-20 11:16 34.298268 -119.165819 313 13957ft 297kts
24-Jul-20 11:17 34.370182 -119.169825 45 12410ft 296kts
24-Jul-20 11:18 34.389876 -119.075888 122 11993ft 338kts
24-Jul-20 11:19 34.324785 -119.007687 138 11993ft 305kts
24-Jul-20 11:20 34.263339 -118.937772 136 11993ft 305kts
24-Jul-20 11:21 34.203450 -118.867567 137 11993ft 300kts
24-Jul-20 11:22 34.144795 -118.798754 137 11775ft 294kts
24-Jul-20 11:23 34.088016 -118.732143 136 10805ft 288kts
24-Jul-20 11:24 34.032900 -118.664529 120 9886ft 279kts
24-Jul-20 11:25 34.021307 -118.576387 97 9416ft 275kts
24-Jul-20 11:26 34.013697 -118.492869 97 8396ft 236kts
24-Jul-20 11:27 34.016645 -118.418741 78 6339ft 229kts
24-Jul-20 11:28 34.028172 -118.350965 81 6021ft 221kts
24-Jul-20 11:29 34.035359 -118.280463 83 5664ft 225kts
24-Jul-20 11:30 34.042191 -118.209678 83 4118ft 228kts
24-Jul-20 11:31 34.039228 -118.135657 138 3002ft 203kts
24-Jul-20 11:32 33.993483 -118.127574 231 3006ft 186kts
24-Jul-20 11:33 33.975407 -118.180674 262 2995ft 175kts
24-Jul-20 11:34 33.969386 -118.237868 263 2776ft 165kts
24-Jul-20 11:35 33.964193 -118.286591 263 2003ft 142kts
24-Jul-20 11:36 33.959295 -118.333281 263 1273ft 140kts
24-Jul-20 11:37 33.954465 -118.379414 263 524ft 138kts
24-Jul-20 11:38 33.950307 -118.419421 263 119ft 54kts
24-Jul-20 11:39 33.948588 -118.426689 228 119ft 5kts
24-Jul-20 11:40 33.946540 -118.427779 175 119ft 0kts

Navigation Log

Ident Type
Flight plan parsing failed, navigation log unavailable